createdAt,value
2022-11-01T00:01:23.277Z,100537.91
2022-11-01T00:03:56.651Z,100539.88
2022-11-01T00:06:29.916Z,100538.53
2022-11-01T00:09:03.193Z,100532.63
2022-11-01T00:11:36.574Z,100534.53
2022-11-01T00:14:13.028Z,100532.78
2022-11-01T00:16:46.377Z,100531.91
2022-11-01T00:19:20.102Z,100526.72
2022-11-01T00:21:55.908Z,100533.06
2022-11-01T00:24:31.209Z,100528.69
2022-11-01T00:27:04.535Z,100530.47
2022-11-01T00:29:39.185Z,100524.25
2022-11-01T00:32:12.409Z,100523.25
2022-11-01T00:34:45.599Z,100519.59
2022-11-01T00:37:18.913Z,100524.19
2022-11-01T00:39:52.071Z,100514.31
2022-11-01T00:42:25.332Z,100507.19
2022-11-01T00:45:00.009Z,100504.41
2022-11-01T00:47:33.229Z,100502.69
2022-11-01T00:50:07.006Z,100504.66
2022-11-01T00:52:40.563Z,100503.13
2022-11-01T00:55:13.752Z,100496.22
2022-11-01T00:57:47.044Z,100500.00
2022-11-01T01:00:21.838Z,100500.13
2022-11-01T01:02:55.075Z,100499.44
2022-11-01T01:05:28.317Z,100496.19
2022-11-01T01:08:01.700Z,100493.81
2022-11-01T01:10:34.921Z,100495.81
2022-11-01T01:13:08.481Z,100488.69
2022-11-01T01:15:43.438Z,100484.28
2022-11-01T01:18:16.753Z,100484.28
2022-11-01T01:20:53.467Z,100477.22
2022-11-01T01:23:26.671Z,100484.34
2022-11-01T01:26:00.009Z,100485.16
2022-11-01T01:28:33.252Z,100484.28
2022-11-01T01:31:09.069Z,100488.00
2022-11-01T01:33:42.385Z,100483.41
2022-11-01T01:36:15.674Z,100482.56
2022-11-01T01:38:48.857Z,100486.16
2022-11-01T01:41:39.824Z,100481.03
2022-11-01T01:44:30.622Z,100481.13
2022-11-01T01:47:05.295Z,100471.19
2022-11-01T01:49:41.602Z,100472.16
2022-11-01T01:52:16.040Z,100461.72
2022-11-01T01:54:51.153Z,100468.28
2022-11-01T01:57:25.368Z,100456.81
2022-11-01T01:59:59.122Z,100456.88
2022-11-01T02:02:34.143Z,100457.84
2022-11-01T02:05:11.979Z,100450.91
2022-11-01T02:07:45.918Z,100452.72
2022-11-01T02:10:19.633Z,100450.03
2022-11-01T02:12:52.997Z,100450.91
2022-11-01T02:15:30.266Z,100443.66
2022-11-01T02:18:14.559Z,100440.25
2022-11-01T02:21:02.513Z,100440.41
2022-11-01T02:23:46.836Z,100436.88
2022-11-01T02:26:32.969Z,100438.66
2022-11-01T02:29:12.771Z,100428.03
2022-11-01T02:32:06.059Z,100429.00
2022-11-01T02:34:43.666Z,100430.16
2022-11-01T02:37:22.911Z,100425.84
2022-11-01T02:40:00.400Z,100426.84
2022-11-01T02:42:38.757Z,100425.09
2022-11-01T02:45:27.730Z,100434.38
2022-11-01T02:48:03.405Z,100428.09
2022-11-01T02:50:38.681Z,100432.34
2022-11-01T02:53:15.144Z,100435.56
2022-11-01T02:55:48.342Z,100436.47
2022-11-01T02:58:23.818Z,100432.91
2022-11-01T03:00:58.275Z,100428.59
2022-11-01T03:03:36.681Z,100436.69
2022-11-01T03:06:14.044Z,100437.53
2022-11-01T03:08:49.633Z,100424.16
2022-11-01T03:11:27.542Z,100425.97
2022-11-01T03:14:02.533Z,100423.25
2022-11-01T03:16:37.577Z,100417.88
2022-11-01T03:19:19.648Z,100421.34
2022-11-01T03:21:58.694Z,100414.19
2022-11-01T03:24:37.757Z,100406.44
2022-11-01T03:27:14.243Z,100400.53
2022-11-01T03:29:51.430Z,100396.22
2022-11-01T03:32:26.381Z,100404.09
2022-11-01T03:35:01.666Z,100398.56
2022-11-01T03:37:35.272Z,100401.03
2022-11-01T03:40:11.379Z,100400.94
2022-11-01T03:42:48.848Z,100396.47
2022-11-01T03:45:25.214Z,100387.78
2022-11-01T03:47:58.689Z,100388.03
2022-11-01T03:50:34.053Z,100383.91
2022-11-01T03:53:07.478Z,100386.09
2022-11-01T03:55:40.630Z,100390.75
2022-11-01T03:58:13.961Z,100390.81
2022-11-01T04:00:47.806Z,100385.63
2022-11-01T04:03:21.038Z,100384.66
2022-11-01T04:05:55.622Z,100370.34
2022-11-01T04:08:28.831Z,100369.56
2022-11-01T04:11:02.152Z,100369.66
2022-11-01T04:13:35.320Z,100366.16
2022-11-01T04:16:27.641Z,100360.72
2022-11-01T04:19:18.209Z,100361.53
2022-11-01T04:21:52.935Z,100365.94
2022-11-01T04:24:26.095Z,100370.44
2022-11-01T04:26:59.259Z,100365.16
2022-11-01T04:29:32.476Z,100365.94
2022-11-01T04:32:05.717Z,100357.84
2022-11-01T04:34:44.731Z,100364.06
2022-11-01T04:37:19.379Z,100348.97
2022-11-01T04:39:52.678Z,100350.78
2022-11-01T04:42:25.942Z,100349.91
2022-11-01T04:44:59.149Z,100352.56
2022-11-01T04:47:32.398Z,100349.91
2022-11-01T04:50:06.098Z,100344.47
2022-11-01T04:52:40.676Z,100339.06
2022-11-01T04:55:14.436Z,100343.41
2022-11-01T04:57:47.649Z,100345.13
2022-11-01T05:00:23.126Z,100347.75
2022-11-01T05:03:01.792Z,100342.28
2022-11-01T05:05:36.016Z,100345.84
2022-11-01T05:08:11.651Z,100347.63
2022-11-01T05:10:45.713Z,100341.28
2022-11-01T05:13:18.835Z,100341.28
2022-11-01T05:16:06.449Z,100331.50
2022-11-01T05:18:45.303Z,100326.16
2022-11-01T05:21:18.569Z,100331.59
2022-11-01T05:23:53.209Z,100333.41
2022-11-01T05:26:27.895Z,100326.50
2022-11-01T05:29:08.750Z,100326.66
2022-11-01T05:31:46.629Z,100331.09
2022-11-01T05:34:19.819Z,100315.13
2022-11-01T05:37:13.423Z,100316.03
2022-11-01T05:39:53.256Z,100315.00
2022-11-01T05:42:26.322Z,100306.97
2022-11-01T05:44:59.478Z,100297.31
2022-11-01T05:47:35.562Z,100295.63
2022-11-01T05:50:17.222Z,100291.97
2022-11-01T05:52:51.163Z,100300.84
2022-11-01T05:55:25.837Z,100298.09
2022-11-01T05:57:59.431Z,100299.84
2022-11-01T06:00:32.706Z,100304.22
2022-11-01T06:03:06.463Z,100298.72
2022-11-01T06:05:40.143Z,100310.13
2022-11-01T06:08:13.316Z,100311.88
2022-11-01T06:13:36.587Z,100303.28
2022-11-01T06:16:10.176Z,100314.91
2022-11-01T06:18:43.485Z,100324.44
2022-11-01T06:21:16.749Z,100333.34
2022-11-01T06:23:51.212Z,100334.13
2022-11-01T06:26:24.518Z,100340.91
2022-11-01T06:29:01.068Z,100343.38
2022-11-01T06:31:34.245Z,100345.88
2022-11-01T06:34:07.477Z,100344.84
2022-11-01T06:36:40.626Z,100343.91
2022-11-01T06:39:13.901Z,100349.97
2022-11-01T06:41:47.122Z,100350.84
2022-11-01T06:44:21.747Z,100359.66
2022-11-01T06:46:55.107Z,100347.94
2022-11-01T06:49:29.603Z,100347.78
2022-11-01T06:52:03.443Z,100344.00
2022-11-01T06:54:36.677Z,100355.50
2022-11-01T06:57:09.883Z,100363.28
2022-11-01T06:59:44.434Z,100366.66
2022-11-01T07:02:19.760Z,100369.28
2022-11-01T07:04:53.145Z,100368.97
2022-11-01T07:07:26.431Z,100364.34
2022-11-01T07:09:59.637Z,100364.19
2022-11-01T07:12:34.202Z,100359.66
2022-11-01T07:15:09.355Z,100349.72
2022-11-01T07:17:42.715Z,100357.69
2022-11-01T07:20:15.931Z,100349.41
2022-11-01T07:22:49.244Z,100359.03
2022-11-01T07:25:22.437Z,100371.22
2022-11-01T07:28:02.837Z,100376.25
2022-11-01T07:30:50.210Z,100387.66
2022-11-01T07:33:23.699Z,100384.97
2022-11-01T07:35:56.938Z,100394.75
2022-11-01T07:38:30.244Z,100384.97
2022-11-01T07:41:04.995Z,100381.28
2022-11-01T07:43:38.830Z,100387.50
2022-11-01T07:46:13.542Z,100392.94
2022-11-01T07:48:46.862Z,100386.81
2022-11-01T07:51:20.251Z,100378.84
2022-11-01T07:53:53.504Z,100378.00
2022-11-01T07:56:26.768Z,100370.97
2022-11-01T07:58:59.975Z,100360.25
2022-11-01T08:01:37.689Z,100367.44
2022-11-01T08:04:10.957Z,100365.53
2022-11-01T08:06:46.934Z,100360.88
2022-11-01T08:09:25.282Z,100354.44
2022-11-01T08:11:59.612Z,100350.78
2022-11-01T08:14:32.875Z,100362.16
2022-11-01T08:17:08.120Z,100363.16
2022-11-01T08:19:41.340Z,100356.78
2022-11-01T08:22:14.488Z,100346.69
2022-11-01T08:24:47.705Z,100349.22
2022-11-01T08:27:20.880Z,100349.81
2022-11-01T08:29:56.444Z,100352.50
2022-11-01T08:32:31.157Z,100343.69
2022-11-01T08:35:04.315Z,100334.84
2022-11-01T08:37:37.825Z,100338.56
2022-11-01T08:40:12.022Z,100328.19
2022-11-01T08:42:45.433Z,100337.16
2022-11-01T08:45:19.054Z,100335.59
2022-11-01T08:47:57.627Z,100327.72
2022-11-01T08:50:30.910Z,100319.78
2022-11-01T08:53:05.529Z,100312.75
2022-11-01T08:55:39.359Z,100324.16
2022-11-01T08:58:18.457Z,100318.13
2022-11-01T09:00:52.379Z,100316.22
2022-11-01T09:03:29.822Z,100316.94
2022-11-01T09:06:03.867Z,100309.69
2022-11-01T09:08:37.708Z,100312.19
2022-11-01T09:11:13.707Z,100309.28
2022-11-01T09:13:47.095Z,100314.47
2022-11-01T09:16:23.397Z,100309.81
2022-11-01T09:19:01.843Z,100306.88
2022-11-01T09:21:35.260Z,100303.78
2022-11-01T09:24:10.190Z,100293.50
2022-11-01T09:26:43.572Z,100305.69
2022-11-01T09:29:18.747Z,100298.69
2022-11-01T09:31:52.301Z,100312.94
2022-11-01T09:34:26.975Z,100325.31
2022-11-01T09:37:00.234Z,100320.91
2022-11-01T09:39:33.478Z,100322.66
2022-11-01T09:42:13.454Z,100321.06
2022-11-01T09:44:49.346Z,100314.84
2022-11-01T09:47:24.179Z,100315.72
2022-11-01T09:50:03.141Z,100309.34
2022-11-01T09:52:36.328Z,100308.09
2022-11-01T09:55:14.713Z,100305.19
2022-11-01T09:57:53.306Z,100299.66
2022-11-01T10:00:27.129Z,100293.50
2022-11-01T10:03:16.076Z,100294.47
2022-11-01T10:05:59.224Z,100285.47
2022-11-01T10:08:44.816Z,100286.16
2022-11-01T10:11:29.815Z,100287.47
2022-11-01T10:14:14.295Z,100276.50
2022-11-01T10:16:54.799Z,100275.88
2022-11-01T10:19:32.973Z,100277.88
2022-11-01T10:22:12.007Z,100277.09
2022-11-01T10:24:51.402Z,100268.97
2022-11-01T10:27:33.136Z,100269.91
2022-11-01T10:30:13.426Z,100264.53
2022-11-01T10:32:48.336Z,100265.94
2022-11-01T10:35:23.675Z,100264.97
2022-11-01T10:38:19.042Z,100265.69
2022-11-01T10:40:56.610Z,100266.53
2022-11-01T10:43:29.782Z,100268.53
2022-11-01T10:46:04.043Z,100267.06
2022-11-01T10:48:39.461Z,100264.72
2022-11-01T10:51:16.190Z,100253.41
2022-11-01T10:53:52.317Z,100259.88
2022-11-01T10:56:28.275Z,100262.53
2022-11-01T10:59:03.599Z,100268.88
2022-11-01T11:01:38.300Z,100265.22
2022-11-01T11:04:14.534Z,100258.94
2022-11-01T11:06:47.724Z,100253.56
2022-11-01T11:09:25.909Z,100243.63
2022-11-01T11:12:01.213Z,100245.94
2022-11-01T11:14:36.255Z,100243.88
2022-11-01T11:17:15.858Z,100234.13
2022-11-01T11:19:49.451Z,100242.06
2022-11-01T11:22:23.726Z,100247.34
2022-11-01T11:24:59.765Z,100236.53
2022-11-01T11:27:34.482Z,100240.16
2022-11-01T11:30:08.781Z,100240.16
2022-11-01T11:32:50.880Z,100241.91
2022-11-01T11:35:25.273Z,100233.06
2022-11-01T11:37:59.855Z,100227.69
2022-11-01T11:40:46.083Z,100226.75
2022-11-01T11:43:24.256Z,100219.31
2022-11-01T11:46:05.155Z,100222.78
2022-11-01T11:48:47.222Z,100219.22
2022-11-01T11:51:21.300Z,100227.16
2022-11-01T11:54:08.194Z,100227.53
2022-11-01T11:56:45.171Z,100232.19
2022-11-01T11:59:22.068Z,100219.75
2022-11-01T12:02:00.430Z,100217.06
2022-11-01T12:04:39.274Z,100234.72
2022-11-01T12:07:24.105Z,100230.13
2022-11-01T12:09:57.804Z,100240.75
2022-11-01T12:12:33.433Z,100232.53
2022-11-01T12:15:26.086Z,100233.94
2022-11-01T12:18:12.899Z,100233.56
2022-11-01T12:20:50.783Z,100220.44
2022-11-01T12:23:28.184Z,100228.75
2022-11-01T12:26:03.205Z,100230.53
2022-11-01T12:28:39.479Z,100218.09
2022-11-01T12:31:15.451Z,100222.56
2022-11-01T12:33:50.619Z,100219.03
2022-11-01T12:36:28.107Z,100213.50
2022-11-01T12:39:04.839Z,100210.66
2022-11-01T12:41:39.586Z,100206.03
2022-11-01T12:44:29.271Z,100206.94
2022-11-01T12:47:05.800Z,100213.31
2022-11-01T12:49:43.475Z,100219.53
2022-11-01T12:52:21.371Z,100230.44
2022-11-01T12:54:59.839Z,100232.53
2022-11-01T12:57:33.235Z,100234.44
2022-11-01T13:00:08.759Z,100227.16
2022-11-01T13:02:53.733Z,100224.22
2022-11-01T13:05:30.613Z,100228.38
2022-11-01T13:08:09.508Z,100230.81
2022-11-01T13:10:44.683Z,100229.47
2022-11-01T13:13:22.754Z,100224.78
2022-11-01T13:16:02.609Z,100229.97
2022-11-01T13:18:43.952Z,100244.19
2022-11-01T13:21:23.446Z,100253.34
2022-11-01T13:24:00.898Z,100258.88
2022-11-01T13:26:36.935Z,100260.97
2022-11-01T13:29:17.782Z,100264.88
2022-11-01T13:32:06.129Z,100262.44
2022-11-01T13:34:47.131Z,100264.28
2022-11-01T13:37:28.425Z,100267.03
2022-11-01T13:40:13.196Z,100268.88
2022-11-01T13:42:49.713Z,100266.38
2022-11-01T13:45:46.815Z,100267.47
2022-11-01T13:48:24.300Z,100268.53
2022-11-01T13:51:10.989Z,100277.78
2022-11-01T13:53:47.093Z,100267.41
2022-11-01T13:56:32.761Z,100271.38
2022-11-01T13:59:14.117Z,100284.00
2022-11-01T14:01:47.293Z,100279.44
2022-11-01T14:04:35.286Z,100284.72
2022-11-01T14:07:17.078Z,100288.41
2022-11-01T14:09:50.867Z,100290.31
2022-11-01T14:12:37.979Z,100285.91
2022-11-01T14:15:15.637Z,100282.19
2022-11-01T14:17:56.439Z,100282.03
2022-11-01T14:20:43.293Z,100286.31
2022-11-01T14:23:34.991Z,100285.38
2022-11-01T14:26:26.763Z,100289.91
2022-11-01T14:29:02.691Z,100288.06
2022-11-01T14:31:37.139Z,100282.72
2022-11-01T14:34:21.613Z,100290.66
2022-11-01T14:36:57.565Z,100293.34
2022-11-01T14:39:35.840Z,100287.03
2022-11-01T14:42:16.216Z,100289.59
2022-11-01T14:44:53.993Z,100285.13
2022-11-01T14:47:33.356Z,100285.13
2022-11-01T14:50:14.415Z,100290.41
2022-11-01T14:52:51.460Z,100284.16
2022-11-01T14:55:26.420Z,100278.72
2022-11-01T14:58:23.413Z,100296.47
2022-11-01T15:01:04.777Z,100305.34
2022-11-01T15:03:37.901Z,100295.69
2022-11-01T15:06:17.149Z,100291.34
2022-11-01T15:08:50.336Z,100287.91
2022-11-01T15:11:27.807Z,100277.19
2022-11-01T15:14:02.595Z,100285.13
2022-11-01T15:16:37.439Z,100281.47
2022-11-01T15:19:16.169Z,100283.22
2022-11-01T15:21:49.511Z,100292.13
2022-11-01T15:24:23.605Z,100297.47
2022-11-01T15:26:56.841Z,100302.00
2022-11-01T15:29:32.060Z,100291.19
2022-11-01T15:32:06.720Z,100283.91
2022-11-01T15:34:39.985Z,100282.88
2022-11-01T15:37:20.085Z,100285.66
2022-11-01T15:39:53.249Z,100284.78
2022-11-01T15:42:31.560Z,100293.00
2022-11-01T15:45:20.188Z,100288.50
2022-11-01T15:47:55.976Z,100295.59
2022-11-01T15:50:36.872Z,100298.28
2022-11-01T15:53:11.334Z,100300.00
2022-11-01T15:55:46.660Z,100301.72
2022-11-01T15:58:20.978Z,100297.22
2022-11-01T16:00:55.731Z,100307.88
2022-11-01T16:03:32.003Z,100305.00
2022-11-01T16:06:08.438Z,100310.28
2022-11-01T16:08:43.172Z,100311.19
2022-11-01T16:11:18.952Z,100308.50
2022-11-01T16:13:54.242Z,100308.50
2022-11-01T16:16:27.463Z,100315.72
2022-11-01T16:19:02.090Z,100315.91
2022-11-01T16:21:35.183Z,100309.84
2022-11-01T16:24:16.283Z,100297.47
2022-11-01T16:27:00.371Z,100296.72
2022-11-01T16:29:40.464Z,100305.69
2022-11-01T16:32:18.357Z,100314.72
2022-11-01T16:34:53.114Z,100323.78
2022-11-01T16:37:27.271Z,100325.75
2022-11-01T16:40:20.642Z,100325.94
2022-11-01T16:42:53.750Z,100327.03
2022-11-01T16:45:27.066Z,100325.50
2022-11-01T16:48:00.597Z,100321.06
2022-11-01T16:50:35.351Z,100319.38
2022-11-01T16:53:10.938Z,100334.47
2022-11-01T16:55:44.801Z,100327.41
2022-11-01T16:58:22.374Z,100319.44
2022-11-01T17:00:57.031Z,100322.22
2022-11-01T17:03:31.571Z,100319.63
2022-11-01T17:06:06.329Z,100316.13
2022-11-01T17:08:39.615Z,100315.28
2022-11-01T17:11:13.730Z,100323.22
2022-11-01T17:13:46.899Z,100319.78
2022-11-01T17:16:22.332Z,100323.31
2022-11-01T17:18:57.096Z,100328.66
2022-11-01T17:21:32.720Z,100330.41
2022-11-01T17:24:06.123Z,100325.81
2022-11-01T17:26:40.890Z,100326.59
2022-11-01T17:29:15.082Z,100327.47
2022-11-01T17:31:48.316Z,100330.16
2022-11-01T17:34:21.764Z,100331.03
2022-11-01T17:36:57.673Z,100323.91
2022-11-01T17:39:31.029Z,100325.81
2022-11-01T17:42:06.645Z,100330.41
2022-11-01T17:44:39.909Z,100327.00
2022-11-01T17:47:14.945Z,100330.75
2022-11-01T17:49:48.191Z,100336.25
2022-11-01T17:52:22.919Z,100337.13
2022-11-01T17:54:56.167Z,100346.13
2022-11-01T17:57:29.641Z,100338.00
2022-11-01T18:00:02.896Z,100342.31
2022-11-01T18:02:45.595Z,100345.69
2022-11-01T18:05:18.827Z,100352.78
2022-11-01T18:07:53.950Z,100343.97
2022-11-01T18:10:32.797Z,100347.50
2022-11-01T18:13:11.904Z,100340.41
2022-11-01T18:15:48.945Z,100333.25
2022-11-01T18:18:31.394Z,100338.53
2022-11-01T18:21:10.096Z,100334.09
2022-11-01T18:23:46.118Z,100334.03
2022-11-01T18:26:21.356Z,100343.72
2022-11-01T18:28:55.496Z,100340.00
2022-11-01T18:31:38.409Z,100343.47
2022-11-01T18:34:17.891Z,100332.69
2022-11-01T18:36:54.307Z,100338.81
2022-11-01T18:39:33.350Z,100331.63
2022-11-01T18:42:07.803Z,100323.66
2022-11-01T18:44:41.071Z,100325.31
2022-11-01T18:47:16.331Z,100325.31
2022-11-01T18:49:50.024Z,100325.25
2022-11-01T18:52:23.990Z,100332.31
2022-11-01T18:54:59.034Z,100337.69
2022-11-01T18:57:33.042Z,100332.41
2022-11-01T19:00:13.944Z,100328.78
2022-11-01T19:02:47.173Z,100331.28
2022-11-01T19:05:21.366Z,100337.44
2022-11-01T19:08:11.393Z,100335.53
2022-11-01T19:10:46.234Z,100340.91
2022-11-01T19:13:23.726Z,100338.31
2022-11-01T19:15:58.204Z,100344.59
2022-11-01T19:18:31.649Z,100345.53
2022-11-01T19:21:07.224Z,100342.94
2022-11-01T19:23:41.243Z,100341.16
2022-11-01T19:26:26.933Z,100348.22
2022-11-01T19:29:00.245Z,100346.44
2022-11-01T19:31:34.651Z,100340.28
2022-11-01T19:34:14.770Z,100341.25
2022-11-01T19:36:49.460Z,100331.38
2022-11-01T19:39:24.227Z,100330.44
2022-11-01T19:42:01.641Z,100331.28
2022-11-01T19:44:34.956Z,100333.03
2022-11-01T19:47:24.103Z,100335.72
2022-11-01T19:49:57.504Z,100335.72
2022-11-01T19:52:35.854Z,100333.03
2022-11-01T19:55:27.289Z,100333.03
2022-11-01T19:58:02.600Z,100334.81
2022-11-01T20:00:36.002Z,100326.88
2022-11-01T20:03:19.231Z,100334.13
2022-11-01T20:05:52.451Z,100334.22
2022-11-01T20:08:30.588Z,100332.47
2022-11-01T20:11:03.696Z,100342.44
2022-11-01T20:13:40.133Z,100338.03
2022-11-01T20:16:13.242Z,100333.63
2022-11-01T20:18:46.728Z,100335.28
2022-11-01T20:21:19.821Z,100335.16
2022-11-01T20:23:52.935Z,100335.06
2022-11-01T20:26:26.152Z,100337.69
2022-11-01T20:29:00.983Z,100337.50
2022-11-01T20:31:34.299Z,100333.03
2022-11-01T20:34:09.378Z,100336.47
2022-11-01T20:37:07.863Z,100342.69
2022-11-01T20:39:38.404Z,100344.44
2022-11-01T20:42:11.554Z,100347.13
2022-11-01T20:44:46.136Z,100344.44
2022-11-01T20:47:19.309Z,100347.03
2022-11-01T20:49:53.315Z,100352.41
2022-11-01T20:52:39.135Z,100347.97
2022-11-01T20:55:13.932Z,100354.31
2022-11-01T20:57:47.136Z,100347.22
2022-11-01T21:00:23.696Z,100347.28
2022-11-01T21:02:57.687Z,100352.66
2022-11-01T21:05:31.376Z,100362.44
2022-11-01T21:08:09.478Z,100356.09
2022-11-01T21:10:43.609Z,100357.75
2022-11-01T21:13:21.924Z,100360.19
2022-11-01T21:15:58.108Z,100356.53
2022-11-01T21:18:39.560Z,100364.34
2022-11-01T21:21:33.566Z,100362.47
2022-11-01T21:24:33.612Z,100364.09
2022-11-01T21:27:24.829Z,100356.84
2022-11-01T21:30:12.766Z,100362.97
2022-11-01T21:32:47.670Z,100353.88
2022-11-01T21:35:38.131Z,100353.78
2022-11-01T21:38:34.646Z,100357.28
2022-11-01T21:41:24.738Z,100342.03
2022-11-01T21:44:00.443Z,100346.38
2022-11-01T21:46:34.846Z,100345.31
2022-11-01T21:49:21.701Z,100348.88
2022-11-01T21:51:55.954Z,100353.53
2022-11-01T21:54:29.839Z,100354.59
2022-11-01T21:57:03.333Z,100349.47
2022-11-01T21:59:36.801Z,100352.25
2022-11-01T22:02:13.982Z,100350.50
2022-11-01T22:04:48.771Z,100353.19
2022-11-01T22:07:22.319Z,100355.09
2022-11-01T22:09:55.669Z,100356.13
2022-11-01T22:12:28.905Z,100359.78
2022-11-01T22:15:02.120Z,100360.78
2022-11-01T22:17:35.339Z,100367.09
2022-11-01T22:20:10.571Z,100354.56
2022-11-01T22:22:43.714Z,100367.81
2022-11-01T22:25:16.851Z,100365.13
2022-11-01T22:27:50.031Z,100366.94
2022-11-01T22:30:23.816Z,100365.13
2022-11-01T22:32:57.103Z,100361.56
2022-11-01T22:35:31.788Z,100360.72
2022-11-01T22:38:11.857Z,100362.53
2022-11-01T22:40:46.340Z,100359.78
2022-11-01T22:43:20.336Z,100362.47
2022-11-01T22:45:54.348Z,100356.03
2022-11-01T22:48:27.783Z,100364.16
2022-11-01T22:51:03.948Z,100367.66
2022-11-01T22:53:37.090Z,100364.88
2022-11-01T22:56:12.019Z,100371.19
2022-11-01T22:58:45.318Z,100367.66
2022-11-01T23:01:25.836Z,100370.31
2022-11-01T23:04:02.662Z,100375.53
2022-11-01T23:06:37.161Z,100377.16
2022-11-01T23:09:14.335Z,100378.00
2022-11-01T23:12:06.678Z,100382.50
2022-11-01T23:14:45.252Z,100387.19
2022-11-01T23:17:29.126Z,100383.56
2022-11-01T23:20:04.091Z,100383.56
2022-11-01T23:22:41.675Z,100377.41
2022-11-01T23:25:14.887Z,100380.88
2022-11-01T23:27:48.267Z,100372.03
2022-11-01T23:30:22.602Z,100375.53
2022-11-01T23:32:56.744Z,100383.56
2022-11-01T23:35:30.051Z,100380.88
2022-11-01T23:38:08.031Z,100379.91
2022-11-01T23:40:41.151Z,100379.91
2022-11-01T23:43:22.255Z,100374.47
2022-11-01T23:45:55.392Z,100380.59
2022-11-01T23:48:28.726Z,100383.19
2022-11-01T23:51:01.994Z,100387.03
2022-11-01T23:53:37.425Z,100387.19
2022-11-01T23:56:10.907Z,100386.41
2022-11-01T23:58:44.126Z,100388.22
